Time;durP1;ratioP1;P1;durP2;ratioP2;P2;SDS_P1;SDS_P2;PMS_P1;PMS_P2;Temp;Humidity;BMP_temperature;BMP_pressure;BME280_temperature;BME280_humidity;BME280_pressure;Samples;Min_cycle;Max_cycle;Signal;HPM_P1;HPM_P2
2020/12/27 00:00:53;;;;;;;0.90;0.90;;;;;;;17.79;48.53;100082.19;5105399;28;20641;-68
2020/12/27 00:03:19;;;;;;;0.80;0.80;;;;;;;17.77;49.05;100079.66;5104856;28;20270;-65
2020/12/27 00:05:45;;;;;;;0.70;0.70;;;;;;;17.73;48.64;100048.53;5103992;28;20187;-60
2020/12/27 00:08:11;;;;;;;0.90;0.90;;;;;;;17.73;49.11;100050.41;5088934;28;20669;-66
2020/12/27 00:10:37;;;;;;;0.80;0.80;;;;;;;17.70;49.25;100035.38;5104811;28;20512;-65
2020/12/27 00:13:04;;;;;;;0.83;0.83;;;;;;;17.71;48.86;100026.22;5106089;28;20566;-65
2020/12/27 00:15:30;;;;;;;0.87;0.87;;;;;;;17.68;49.12;100020.34;5097521;28;20206;-61
2020/12/27 00:17:56;;;;;;;1.00;1.00;;;;;;;17.72;49.09;100027.91;5115318;28;20243;-61
2020/12/27 00:20:22;;;;;;;0.80;0.80;;;;;;;17.81;49.46;100023.31;5115526;27;20265;-60
2020/12/27 00:22:48;;;;;;;0.70;0.70;;;;;;;17.90;49.43;100005.97;5115369;28;20190;-60
2020/12/27 00:25:15;;;;;;;0.70;0.70;;;;;;;18.00;49.31;99979.50;5114543;28;20174;-59
2020/12/27 00:27:41;;;;;;;0.80;0.80;;;;;;;18.13;49.03;99988.84;5115211;28;20662;-59
2020/12/27 00:30:07;;;;;;;1.67;0.90;;;;;;;18.23;48.92;99992.16;5114394;28;20236;-60
2020/12/27 00:32:33;;;;;;;1.03;0.80;;;;;;;18.33;48.70;99965.66;5114328;28;20228;-60
2020/12/27 00:34:59;;;;;;;0.67;0.67;;;;;;;18.41;48.52;99952.00;5115227;28;20209;-60
2020/12/27 00:37:25;;;;;;;0.77;0.77;;;;;;;18.50;48.76;99955.47;5113896;28;20229;-61
2020/12/27 00:39:54;;;;;;;0.80;0.80;;;;;;;18.56;48.58;99955.56;5097356;28;20182;-60
2020/12/27 00:42:21;;;;;;;0.70;0.70;;;;;;;18.60;48.64;99939.78;5114040;28;20193;-61
2020/12/27 00:44:47;;;;;;;0.70;0.70;;;;;;;18.64;48.32;99943.81;5114106;28;20181;-60
2020/12/27 00:47:13;;;;;;;0.80;0.80;;;;;;;18.65;48.29;99940.91;5114901;28;20178;-59
2020/12/27 00:49:39;;;;;;;0.70;0.70;;;;;;;18.65;48.31;99943.63;5113884;28;20204;-60
2020/12/27 00:52:05;;;;;;;0.70;0.70;;;;;;;18.63;48.28;99920.44;5113780;28;20182;-60
2020/12/27 00:54:31;;;;;;;0.80;0.80;;;;;;;18.61;48.51;99917.91;5097022;28;20178;-60
2020/12/27 00:56:57;;;;;;;0.60;0.60;;;;;;;18.59;48.25;99892.84;5079178;28;20238;-61
2020/12/27 00:59:24;;;;;;;0.73;0.73;;;;;;;18.56;48.50;99886.97;5113546;28;20259;-62
2020/12/27 01:01:56;;;;;;;0.63;0.63;;;;;;;18.52;48.55;99881.09;5113604;28;20209;-62
2020/12/27 01:04:22;;;;;;;0.70;0.70;;;;;;;18.46;48.35;99879.16;5112620;28;20281;-61
2020/12/27 01:06:48;;;;;;;0.70;0.70;;;;;;;18.42;48.77;99872.41;5112751;28;20201;-59
2020/12/27 01:09:15;;;;;;;0.70;0.70;;;;;;;18.38;48.37;99873.81;5112669;28;20210;-59
2020/12/27 01:11:41;;;;;;;0.70;0.70;;;;;;;18.33;48.56;99874.38;5112695;28;20220;-66
2020/12/27 01:14:07;;;;;;;0.67;0.67;;;;;;;18.27;48.67;99871.56;5095919;28;20220;-68
2020/12/27 01:16:34;;;;;;;0.60;0.60;;;;;;;18.24;48.90;99869.25;5108880;28;20229;-62
2020/12/27 01:19:00;;;;;;;0.70;0.70;;;;;;;18.20;48.56;99876.03;5091882;28;20238;-61
2020/12/27 01:21:27;;;;;;;0.70;0.70;;;;;;;18.16;48.54;99861.19;5092935;28;20179;-62
2020/12/27 01:23:53;;;;;;;0.77;0.77;;;;;;;18.14;48.57;99837.00;5091895;28;20225;-67
2020/12/27 01:26:30;;;;;;;0.70;0.70;;;;;;;18.09;48.78;99812.34;5092816;28;20203;-61
2020/12/27 01:28:56;;;;;;;0.60;0.60;;;;;;;18.10;48.80;99804.03;5092681;28;20199;-62
2020/12/27 01:31:23;;;;;;;0.67;0.60;;;;;;;18.06;48.86;99791.91;5076840;28;20191;-66
2020/12/27 01:33:49;;;;;;;0.77;0.77;;;;;;;18.07;48.48;99793.59;5084795;28;20274;-61
2020/12/27 01:36:31;;;;;;;0.70;0.70;;;;;;;18.02;48.89;99778.94;5074765;28;20211;-67
2020/12/27 01:38:58;;;;;;;0.53;0.53;;;;;;;18.02;48.82;99774.38;5092357;28;20203;-61
2020/12/27 01:41:24;;;;;;;0.57;0.57;;;;;;;18.04;48.60;99772.31;5055877;28;20226;-61
2020/12/27 01:44:17;;;;;;;0.70;0.70;;;;;;;18.07;48.58;99782.75;5074870;28;20635;-61
2020/12/27 01:46:44;;;;;;;0.60;0.60;;;;;;;18.07;48.28;99784.63;5092508;28;20574;-66
2020/12/27 01:49:11;;;;;;;0.50;0.50;;;;;;;18.06;48.44;99767.53;5092588;28;20548;-67
2020/12/27 01:51:37;;;;;;;0.53;0.53;;;;;;;18.04;48.40;99747.94;5091591;28;20191;-67
2020/12/27 01:54:03;;;;;;;0.53;0.53;;;;;;;18.02;48.45;99736.47;5092617;28;20694;-67
2020/12/27 01:56:33;;;;;;;0.60;0.60;;;;;;;17.97;48.72;99719.06;5091672;28;20229;-67
2020/12/27 01:59:03;;;;;;;0.60;0.60;;;;;;;17.92;48.20;99703.41;5091414;28;20199;-61
2020/12/27 02:01:30;;;;;;;0.60;0.60;;;;;;;17.92;48.13;99692.56;5074594;28;20794;-61
2020/12/27 02:03:56;;;;;;;0.60;0.60;;;;;;;17.87;48.36;99681.47;5090986;28;20183;-62
2020/12/27 02:06:22;;;;;;;0.40;0.40;;;;;;;17.90;48.74;99670.25;5074409;28;20179;-68
2020/12/27 02:08:49;;;;;;;0.40;0.40;;;;;;;17.94;48.33;99663.44;5091355;28;20587;-67
2020/12/27 02:11:17;;;;;;;0.53;0.50;;;;;;;18.00;48.52;99661.88;5092387;28;20236;-68
2020/12/27 02:13:49;;;;;;;0.40;0.40;;;;;;;18.08;48.61;99659.88;5091271;28;20186;-60
2020/12/27 02:16:26;;;;;;;0.50;0.50;;;;;;;18.19;48.92;99653.09;5091051;28;20580;-62
2020/12/27 02:19:01;;;;;;;0.50;0.50;;;;;;;18.29;48.64;99633.84;5067860;28;20206;-61
2020/12/27 02:21:27;;;;;;;0.40;0.40;;;;;;;18.39;48.26;99609.97;5074310;28;20265;-61
2020/12/27 02:24:02;;;;;;;0.50;0.50;;;;;;;18.47;48.34;99611.72;5090903;28;20191;-61
2020/12/27 02:26:29;;;;;;;0.40;0.40;;;;;;;18.53;48.11;99600.09;5092089;28;20186;-61
2020/12/27 02:28:55;;;;;;;0.50;0.50;;;;;;;18.60;48.38;99601.84;5091845;28;20207;-62
2020/12/27 02:31:23;;;;;;;0.40;0.40;;;;;;;18.64;47.88;99584.16;5074196;28;20270;-62
2020/12/27 02:33:49;;;;;;;0.50;0.50;;;;;;;18.68;48.17;99585.44;5091164;28;20260;-60
2020/12/27 02:36:15;;;;;;;0.40;0.40;;;;;;;18.71;48.33;99565.28;5091466;28;20206;-61
2020/12/27 02:38:41;;;;;;;0.50;0.50;;;;;;;18.71;47.85;99551.72;5091566;28;20291;-61
2020/12/27 02:41:17;;;;;;;0.40;0.40;;;;;;;18.70;48.10;99531.06;5091681;28;20183;-66
2020/12/27 02:43:44;;;;;;;0.40;0.40;;;;;;;18.67;47.87;99529.56;5091497;28;20340;-67
2020/12/27 02:46:17;;;;;;;0.50;0.50;;;;;;;18.64;47.74;99524.53;5090750;28;20187;-62
2020/12/27 02:48:44;;;;;;;0.40;0.40;;;;;;;18.62;47.69;99542.00;5057972;28;20207;-65
2020/12/27 02:51:11;;;;;;;0.50;0.50;;;;;;;18.59;48.25;99537.00;5090881;28;20716;-62
2020/12/27 02:53:37;;;;;;;0.40;0.40;;;;;;;18.55;47.73;99525.72;5091640;28;20194;-60
2020/12/27 02:56:03;;;;;;;0.40;0.40;;;;;;;18.49;48.03;99504.81;5090498;28;20214;-61
2020/12/27 02:58:29;;;;;;;0.40;0.40;;;;;;;18.44;47.93;99518.09;5057024;28;20210;-67
2020/12/27 03:00:55;;;;;;;0.50;0.50;;;;;;;18.40;47.83;99496.00;5091497;28;20193;-67
2020/12/27 03:03:21;;;;;;;0.30;0.30;;;;;;;18.35;48.49;99471.38;5091462;28;20191;-67
2020/12/27 03:05:48;;;;;;;0.50;0.50;;;;;;;18.29;48.38;99460.50;5091462;28;20538;-67
2020/12/27 03:08:14;;;;;;;0.50;0.50;;;;;;;18.23;48.47;99459.41;5091455;28;20297;-67
2020/12/27 03:10:40;;;;;;;0.40;0.40;;;;;;;18.17;48.59;99434.97;5091605;28;20186;-66
2020/12/27 03:13:06;;;;;;;0.50;0.50;;;;;;;18.13;48.28;99428.28;5091464;28;20194;-68
2020/12/27 03:15:32;;;;;;;0.40;0.40;;;;;;;18.06;48.19;99417.41;5090329;28;20238;-61
2020/12/27 03:18:02;;;;;;;0.57;0.57;;;;;;;18.01;48.48;99404.47;5073580;28;20203;-61
2020/12/27 03:20:28;;;;;;;0.30;0.30;;;;;;;17.98;48.52;99422.94;5090325;28;20266;-62
2020/12/27 03:22:54;;;;;;;0.50;0.50;;;;;;;17.98;48.72;99398.56;5090169;28;20622;-60
2020/12/27 03:25:20;;;;;;;0.40;0.40;;;;;;;17.94;48.20;99384.59;5073479;28;20175;-60
2020/12/27 03:27:46;;;;;;;0.40;0.40;;;;;;;17.93;48.41;99374.81;5073645;28;20290;-62
2020/12/27 03:30:12;;;;;;;0.50;0.50;;;;;;;17.91;48.27;99366.03;5091408;28;20187;-67
2020/12/27 03:32:38;;;;;;;0.50;0.40;;;;;;;17.89;48.62;99346.47;5093446;28;20564;-67
2020/12/27 03:35:04;;;;;;;0.40;0.40;;;;;;;17.87;48.66;99353.94;5094976;28;20202;-61
2020/12/27 03:37:35;;;;;;;0.40;0.40;;;;;;;17.90;48.37;99310.22;5094889;28;20203;-61
2020/12/27 03:40:04;;;;;;;0.30;0.30;;;;;;;17.95;48.47;99315.88;5094817;28;20179;-61
2020/12/27 03:42:30;;;;;;;0.43;0.43;;;;;;;17.98;48.24;99318.22;5094240;28;20216;-67
2020/12/27 03:44:57;;;;;;;0.40;0.40;;;;;;;18.01;48.76;99309.69;5094392;28;20244;-67
2020/12/27 03:47:23;;;;;;;0.40;0.40;;;;;;;18.06;48.75;99319.94;5094358;28;20214;-68
2020/12/27 03:49:49;;;;;;;0.40;0.40;;;;;;;18.16;48.72;99282.47;5095099;28;20260;-67
2020/12/27 03:52:15;;;;;;;0.40;0.40;;;;;;;18.28;48.34;99275.47;5094921;28;20244;-60
2020/12/27 03:54:41;;;;;;;0.40;0.40;;;;;;;18.36;48.14;99255.50;5094590;28;20544;-61
2020/12/27 03:57:07;;;;;;;0.20;0.20;;;;;;;18.46;47.95;99264.09;5093523;28;20190;-62
2020/12/27 03:59:33;;;;;;;0.40;0.40;;;;;;;18.54;48.28;99242.22;5093594;28;20187;-61
2020/12/27 04:01:59;;;;;;;0.27;0.27;;;;;;;18.59;47.87;99236.19;5093641;28;20195;-61
2020/12/27 04:04:26;;;;;;;0.40;0.40;;;;;;;18.61;48.23;99231.41;5094529;28;20533;-66
2020/12/27 04:06:52;;;;;;;0.20;0.20;;;;;;;18.64;48.26;99223.72;5094475;28;20260;-67
2020/12/27 04:09:18;;;;;;;0.40;0.40;;;;;;;18.65;47.93;99219.13;5093509;28;20623;-67
2020/12/27 04:11:44;;;;;;;0.30;0.30;;;;;;;18.64;47.89;99207.47;5094516;28;20218;-67
2020/12/27 04:14:11;;;;;;;0.30;0.30;;;;;;;18.63;47.98;99203.06;5076672;28;20195;-68
2020/12/27 04:16:37;;;;;;;0.30;0.30;;;;;;;18.62;47.83;99200.53;5093229;28;20219;-61
2020/12/27 04:19:03;;;;;;;0.27;0.27;;;;;;;18.57;47.72;99198.47;5093219;28;20213;-67
2020/12/27 04:21:29;;;;;;;0.20;0.20;;;;;;;18.55;47.52;99178.03;5094213;28;20319;-66
2020/12/27 04:23:55;;;;;;;0.30;0.30;;;;;;;18.51;47.79;99171.34;5094312;28;20273;-59
2020/12/27 04:26:22;;;;;;;0.27;0.27;;;;;;;18.46;47.77;99168.44;5076720;28;20179;-60
2020/12/27 04:28:48;;;;;;;0.27;0.27;;;;;;;18.41;48.11;99169.03;5093447;28;20554;-60
2020/12/27 04:31:20;;;;;;;0.30;0.30;;;;;;;18.36;48.19;99164.22;5059730;28;20202;-60
2020/12/27 04:33:49;;;;;;;0.30;0.30;;;;;;;18.31;47.75;99165.88;5076740;28;20179;-62
2020/12/27 04:36:18;;;;;;;0.33;0.33;;;;;;;18.26;47.74;99160.25;5092809;28;20210;-60
2020/12/27 04:38:44;;;;;;;0.20;0.20;;;;;;;18.19;48.40;99151.25;5093744;28;20206;-66
2020/12/27 04:41:13;;;;;;;0.30;0.30;;;;;;;18.14;48.05;99148.31;5093833;28;20202;-66
2020/12/27 04:43:39;;;;;;;0.30;0.30;;;;;;;18.11;48.33;99149.56;5092586;28;20607;-66
2020/12/27 04:46:05;;;;;;;0.30;0.30;;;;;;;18.02;48.12;99139.97;5092884;28;20187;-66
2020/12/27 04:48:31;;;;;;;0.20;0.20;;;;;;;17.99;48.14;99130.38;5075939;28;20213;-61
2020/12/27 04:51:05;;;;;;;0.30;0.30;;;;;;;17.96;48.26;99129.94;5076069;28;20195;-65
2020/12/27 04:53:31;;;;;;;0.30;0.30;;;;;;;17.91;48.61;99106.19;5077376;28;20198;-66
2020/12/27 04:55:57;;;;;;;0.20;0.20;;;;;;;17.82;48.22;99090.34;5093643;28;20211;-59
2020/12/27 04:58:23;;;;;;;0.27;0.27;;;;;;;17.92;48.43;99078.06;5075740;28;20670;-60
2020/12/27 05:00:50;;;;;;;0.40;0.40;;;;;;;17.97;48.09;99074.75;5092621;28;20186;-65
2020/12/27 05:03:16;;;;;;;0.20;0.20;;;;;;;17.98;48.64;99074.56;5092447;28;20191;-67
2020/12/27 05:05:42;;;;;;;0.30;0.30;;;;;;;18.01;48.62;99051.69;5093537;28;20182;-67
2020/12/27 05:08:08;;;;;;;0.30;0.30;;;;;;;18.02;48.63;99062.28;5092469;28;20211;-67
2020/12/27 05:10:41;;;;;;;0.20;0.20;;;;;;;18.09;48.49;99035.22;5092448;28;20190;-67
2020/12/27 05:13:11;;;;;;;0.20;0.20;;;;;;;18.19;48.25;99015.84;5092285;28;20270;-67
2020/12/27 05:15:37;;;;;;;0.20;0.20;;;;;;;18.30;48.46;99037.75;5092882;28;20220;-67
2020/12/27 05:18:07;;;;;;;0.20;0.20;;;;;;;18.41;48.03;99001.91;5075072;28;20234;-66
2020/12/27 05:20:34;;;;;;;0.20;0.20;;;;;;;18.49;48.29;98994.63;5092980;28;20179;-59
2020/12/27 05:23:01;;;;;;;0.30;0.30;;;;;;;18.56;48.27;98996.28;5075420;28;20195;-60
2020/12/27 05:25:30;;;;;;;0.40;0.40;;;;;;;18.63;48.17;99007.97;5075392;28;20182;-59
2020/12/27 05:28:07;;;;;;;0.20;0.20;;;;;;;18.67;48.04;99006.50;5092941;28;20683;-60
2020/12/27 05:30:33;;;;;;;0.20;0.20;;;;;;;18.70;47.81;99003.38;5092812;28;20289;-65
2020/12/27 05:32:59;;;;;;;0.20;0.20;;;;;;;18.72;47.66;98995.06;5092738;28;20186;-66
2020/12/27 05:35:25;;;;;;;0.30;0.30;;;;;;;18.72;47.63;98986.91;5092533;28;20199;-61
2020/12/27 05:37:51;;;;;;;0.20;0.20;;;;;;;18.73;47.55;98982.34;5092608;28;20228;-61
2020/12/27 05:40:18;;;;;;;0.30;0.30;;;;;;;18.72;47.73;98972.53;5091878;28;20239;-61
2020/12/27 05:42:44;;;;;;;0.20;0.20;;;;;;;18.69;47.58;98966.50;5092693;28;20179;-61
2020/12/27 05:45:18;;;;;;;0.20;0.20;;;;;;;18.66;47.71;98953.34;5091862;28;20206;-61
2020/12/27 05:47:47;;;;;;;0.20;0.20;;;;;;;18.63;47.47;98959.19;5092494;28;20289;-67
2020/12/27 05:50:17;;;;;;;0.20;0.20;;;;;;;18.60;47.51;98962.28;5092424;28;20533;-68
2020/12/27 05:52:45;;;;;;;0.20;0.20;;;;;;;18.54;47.50;98938.75;5091458;28;20619;-68
2020/12/27 05:55:18;;;;;;;0.23;0.23;;;;;;;18.48;47.54;98930.66;5090882;28;20225;-67
2020/12/27 05:57:48;;;;;;;0.20;0.20;;;;;;;18.41;48.03;98927.94;5091283;28;20205;-67
2020/12/27 06:00:14;;;;;;;0.30;0.30;;;;;;;18.37;47.70;98918.56;5075264;28;20344;-67
2020/12/27 06:02:41;;;;;;;0.20;0.20;;;;;;;18.31;47.86;98914.00;5074653;28;20183;-67
2020/12/27 06:05:14;;;;;;;0.20;0.20;;;;;;;18.24;47.93;98895.06;5092467;28;20649;-67
2020/12/27 06:07:45;;;;;;;0.20;0.20;;;;;;;18.19;48.28;98891.28;5092601;28;20199;-67
2020/12/27 06:10:14;;;;;;;0.13;0.13;;;;;;;18.13;48.53;98884.84;5092173;28;20261;-67
2020/12/27 06:12:46;;;;;;;0.30;0.30;;;;;;;18.05;48.00;98877.78;5091157;28;20191;-67
2020/12/27 06:15:28;;;;;;;0.30;0.30;;;;;;;18.01;48.09;98868.41;5092042;28;20222;-62
2020/12/27 06:18:03;;;;;;;0.20;0.20;;;;;;;17.98;48.07;98859.88;5057993;28;20211;-68
2020/12/27 06:20:35;;;;;;;0.20;0.20;;;;;;;17.98;48.32;98858.03;5091119;28;20284;-62
2020/12/27 06:23:01;;;;;;;0.20;0.20;;;;;;;18.02;48.04;98848.44;5075117;28;20193;-61
2020/12/27 06:25:27;;;;;;;0.30;0.30;;;;;;;18.02;48.37;98837.59;5091247;28;20187;-60
2020/12/27 06:27:54;;;;;;;0.20;0.20;;;;;;;18.06;48.40;98827.19;5057546;28;20198;-67
2020/12/27 06:30:21;;;;;;;0.20;0.20;;;;;;;18.07;48.13;98821.56;5074329;28;20175;-67
2020/12/27 06:32:58;;;;;;;0.20;0.20;;;;;;;18.13;48.32;98813.63;5090719;28;20229;-67
2020/12/27 06:35:29;;;;;;;0.13;0.13;;;;;;;18.24;48.33;98796.75;5090898;28;20607;-67
2020/12/27 06:37:56;;;;;;;0.20;0.20;;;;;;;18.35;48.47;98788.78;5090569;28;20709;-60
2020/12/27 06:40:22;;;;;;;0.20;0.20;;;;;;;18.44;47.85;98786.63;5074147;28;20179;-61
2020/12/27 06:42:48;;;;;;;0.20;0.20;;;;;;;18.53;47.90;98781.84;5074281;28;20187;-60
2020/12/27 06:45:30;;;;;;;0.10;0.10;;;;;;;18.60;47.95;98772.63;5091776;28;20179;-65
2020/12/27 06:47:57;;;;;;;0.17;0.17;;;;;;;18.66;47.43;98757.41;5091501;28;20292;-66
2020/12/27 06:50:24;;;;;;;0.20;0.20;;;;;;;18.67;47.92;98754.47;5091431;28;20198;-67
2020/12/27 06:52:50;;;;;;;0.20;0.20;;;;;;;18.72;47.90;98745.72;5090660;28;20187;-66
2020/12/27 06:55:33;;;;;;;0.17;0.17;;;;;;;18.71;47.32;98749.47;5091556;28;20219;-61
2020/12/27 06:58:19;;;;;;;0.20;0.20;;;;;;;18.71;47.35;98730.50;5090600;28;20206;-65
2020/12/27 07:00:45;;;;;;;0.30;0.20;;;;;;;18.69;47.60;98719.03;5090710;28;20340;-65
2020/12/27 07:03:21;;;;;;;0.20;0.10;;;;;;;18.66;47.40;98731.13;5091845;28;20191;-60
2020/12/27 07:05:48;;;;;;;0.20;0.20;;;;;;;18.65;47.40;98696.13;5074067;28;20186;-66
2020/12/27 07:08:16;;;;;;;0.20;0.20;;;;;;;18.61;47.80;98686.75;5094566;28;20207;-60
2020/12/27 07:10:44;;;;;;;0.20;0.20;;;;;;;18.58;47.47;98685.31;5094626;28;20175;-66
2020/12/27 07:13:11;;;;;;;0.10;0.10;;;;;;;18.51;47.47;98687.22;5094524;28;20259;-61
2020/12/27 07:15:46;;;;;;;0.20;0.20;;;;;;;18.45;47.88;98669.13;5094342;28;20195;-61
2020/12/27 07:18:12;;;;;;;0.20;0.20;;;;;;;18.39;47.76;98665.41;5094391;28;20282;-60
2020/12/27 07:20:42;;;;;;;0.10;0.10;;;;;;;18.35;47.56;98647.09;5094494;28;20798;-60
2020/12/27 07:23:13;;;;;;;0.10;0.10;;;;;;;18.29;47.69;98656.09;5095429;28;20526;-61
2020/12/27 07:25:42;;;;;;;0.20;0.20;;;;;;;18.21;47.70;98649.03;5077705;28;20303;-66
2020/12/27 07:28:09;;;;;;;0.10;0.10;;;;;;;18.13;47.88;98643.88;5094917;28;20195;-66
2020/12/27 07:30:35;;;;;;;0.20;0.20;;;;;;;18.09;47.61;98621.00;5094139;28;20198;-59
2020/12/27 07:33:05;;;;;;;0.10;0.10;;;;;;;18.04;47.82;98618.94;5094184;28;20643;-65
2020/12/27 07:35:31;;;;;;;0.13;0.13;;;;;;;18.00;48.00;98606.91;5077689;28;20222;-59
2020/12/27 07:38:01;;;;;;;0.13;0.13;;;;;;;17.99;48.07;98615.22;5060668;28;20642;-66
2020/12/27 07:40:31;;;;;;;0.10;0.10;;;;;;;18.03;48.36;98602.91;5094363;28;20274;-67
2020/12/27 07:42:58;;;;;;;0.20;0.20;;;;;;;18.04;48.37;98601.88;5095206;28;20680;-67
2020/12/27 07:45:24;;;;;;;0.20;0.20;;;;;;;18.06;48.04;98584.38;5094100;28;20185;-66
2020/12/27 07:47:50;;;;;;;0.20;0.20;;;;;;;18.09;48.40;98583.94;5094665;28;20210;-67
2020/12/27 07:50:17;;;;;;;0.10;0.10;;;;;;;18.14;48.09;98580.56;5094621;28;20190;-60
2020/12/27 07:52:47;;;;;;;0.10;0.10;;;;;;;18.23;48.32;98570.31;5093803;28;20342;-61
2020/12/27 07:55:40;;;;;;;0.10;0.10;;;;;;;18.34;47.92;98558.78;5094595;28;20276;-61
2020/12/27 07:58:06;;;;;;;0.20;0.20;;;;;;;18.43;47.98;98543.91;5094104;28;20574;-66
2020/12/27 08:00:34;;;;;;;0.10;0.10;;;;;;;18.55;47.96;98544.03;5094840;28;20214;-67
2020/12/27 08:03:06;;;;;;;0.10;0.10;;;;;;;18.63;47.75;98533.75;5094681;28;20194;-67
2020/12/27 08:05:36;;;;;;;0.10;0.10;;;;;;;18.70;47.92;98531.03;5094459;28;20284;-67
2020/12/27 08:08:12;;;;;;;0.10;0.10;;;;;;;18.76;47.66;98519.28;5094367;28;20654;-67
2020/12/27 08:10:38;;;;;;;0.10;0.10;;;;;;;18.81;47.27;98502.34;5094338;28;20178;-67
2020/12/27 08:13:05;;;;;;;0.10;0.10;;;;;;;18.82;47.37;98504.84;5094320;28;20244;-61
2020/12/27 08:15:35;;;;;;;0.10;0.10;;;;;;;18.84;47.64;98482.91;5094273;28;20225;-60
2020/12/27 08:18:04;;;;;;;0.10;0.10;;;;;;;18.82;47.53;98487.75;5094053;28;20290;-60
2020/12/27 08:20:33;;;;;;;0.10;0.10;;;;;;;18.80;47.19;98479.84;5094525;28;20734;-61
2020/12/27 08:23:05;;;;;;;0.10;0.10;;;;;;;18.78;47.44;98483.81;5093438;28;20275;-61
2020/12/27 08:25:32;;;;;;;0.10;0.10;;;;;;;18.76;47.23;98453.41;5094119;28;20178;-61
2020/12/27 08:27:59;;;;;;;0.10;0.10;;;;;;;18.72;47.61;98463.06;5093052;28;20657;-66
2020/12/27 08:30:26;;;;;;;0.10;0.10;;;;;;;18.67;47.53;98450.97;5092827;28;20190;-60
2020/12/27 08:33:06;;;;;;;0.20;0.10;;;;;;;18.62;47.62;98437.28;5059633;28;20195;-66
2020/12/27 08:35:32;;;;;;;0.10;0.10;;;;;;;18.59;47.38;98436.88;5092886;28;20218;-66
2020/12/27 08:38:17;;;;;;;0.10;0.10;;;;;;;18.52;47.63;98419.88;5093673;28;20205;-66
2020/12/27 08:40:44;;;;;;;0.10;0.10;;;;;;;18.45;47.43;98408.25;5078197;28;20187;-66
2020/12/27 08:43:19;;;;;;;0.10;0.10;;;;;;;18.38;47.46;98397.47;5092820;28;20191;-67
2020/12/27 08:45:45;;;;;;;0.10;0.10;;;;;;;18.32;47.85;98398.38;5076675;28;20562;-67
2020/12/27 08:48:23;;;;;;;0.13;0.13;;;;;;;18.25;47.62;98384.91;5059149;28;20277;-67
2020/12/27 08:50:49;;;;;;;0.13;0.13;;;;;;;18.17;47.58;98376.22;5075719;28;20236;-62
2020/12/27 08:53:15;;;;;;;0.10;0.10;;;;;;;18.10;48.09;98363.59;5075992;28;20218;-67
2020/12/27 08:55:41;;;;;;;0.03;0.03;;;;;;;18.06;47.77;98356.97;5092662;28;20598;-67
2020/12/27 08:58:10;;;;;;;0.10;0.10;;;;;;;18.00;47.73;98357.88;5092662;28;20199;-67
2020/12/27 09:00:37;;;;;;;0.10;0.10;;;;;;;18.00;47.81;98340.81;5093532;28;20265;-62
2020/12/27 09:03:04;;;;;;;0.10;0.10;;;;;;;18.01;48.23;98340.59;5093632;28;20194;-67
2020/12/27 09:05:31;;;;;;;0.10;0.10;;;;;;;18.06;48.10;98329.91;5093336;28;20199;-60
2020/12/27 09:07:57;;;;;;;0.10;0.10;;;;;;;18.06;47.95;98334.50;5075356;28;20214;-67
2020/12/27 09:10:24;;;;;;;0.10;0.10;;;;;;;18.11;48.05;98318.41;5093529;28;20193;-67
2020/12/27 09:13:00;;;;;;;0.10;0.10;;;;;;;18.14;48.27;98298.16;5093104;28;20226;-67
2020/12/27 09:15:33;;;;;;;0.10;0.10;;;;;;;18.17;48.22;98293.13;5092882;28;20203;-67
2020/12/27 09:18:02;;;;;;;0.10;0.10;;;;;;;18.26;48.03;98290.97;5093151;28;20210;-67
2020/12/27 09:20:29;;;;;;;0.20;0.20;;;;;;;18.35;48.08;98287.72;5093095;28;20183;-67
2020/12/27 09:22:55;;;;;;;0.03;0.03;;;;;;;18.47;47.78;98281.56;5092930;28;20185;-67
2020/12/27 09:25:22;;;;;;;0.00;0.00;;;;;;;18.55;48.10;98273.94;5092913;28;20202;-67
2020/12/27 09:27:49;;;;;;;0.10;0.10;;;;;;;18.64;47.68;98275.31;5092664;28;20607;-67
2020/12/27 09:30:23;;;;;;;0.03;0.03;;;;;;;18.70;47.49;98270.88;5092118;28;20191;-62
2020/12/27 09:32:49;;;;;;;0.10;0.10;;;;;;;18.75;47.46;98245.81;5092912;28;20183;-62
2020/12/27 09:35:20;;;;;;;0.10;0.10;;;;;;;18.78;47.68;98245.34;5075245;28;20198;-61
2020/12/27 09:37:46;;;;;;;0.10;0.10;;;;;;;18.81;47.29;98244.88;5092774;28;20202;-61
2020/12/27 09:40:15;;;;;;;0.10;0.10;;;;;;;18.81;47.68;98213.19;5075171;28;20194;-67
2020/12/27 09:42:41;;;;;;;0.10;0.10;;;;;;;18.81;47.47;98212.34;5091544;28;20521;-67
2020/12/27 09:45:24;;;;;;;0.03;0.03;;;;;;;18.81;47.23;98223.19;5091641;28;20276;-60
2020/12/27 09:48:00;;;;;;;0.00;0.00;;;;;;;18.77;47.32;98203.88;5091423;28;20639;-60
2020/12/27 09:50:37;;;;;;;0.00;0.00;;;;;;;18.72;47.26;98195.59;5074643;28;20311;-68
2020/12/27 09:53:03;;;;;;;0.07;0.07;;;;;;;18.67;47.64;98215.25;5092535;28;20187;-67
2020/12/27 09:55:29;;;;;;;0.03;0.03;;;;;;;18.67;47.32;98179.19;5092289;28;20528;-61
2020/12/27 09:57:55;;;;;;;0.20;0.20;;;;;;;18.50;41.91;98159.22;5057761;28;20214;-63
2020/12/27 10:00:22;;;;;;;2.33;0.20;;;;;;;18.07;40.24;98157.50;5092165;28;20263;-69
2020/12/27 10:02:48;;;;;;;0.20;0.20;;;;;;;17.94;41.59;98161.16;5074350;28;20482;-60
2020/12/27 10:05:14;;;;;;;0.93;0.20;;;;;;;17.93;42.40;98148.69;5091095;28;20183;-68
2020/12/27 10:07:40;;;;;;;1.27;0.20;;;;;;;17.87;43.33;98130.66;5091109;28;20750;-67
2020/12/27 10:10:07;;;;;;;0.27;0.10;;;;;;;17.89;43.67;98106.91;5092149;28;20183;-60
2020/12/27 10:12:34;;;;;;;0.80;0.40;;;;;;;17.96;43.93;98123.06;5074539;28;20190;-69
2020/12/27 10:15:00;;;;;;;2.10;0.20;;;;;;;18.04;44.30;98095.69;5092080;28;20207;-69
2020/12/27 10:17:26;;;;;;;0.10;0.10;;;;;;;18.13;44.47;98088.91;5091184;28;20182;-66
2020/12/27 10:19:52;;;;;;;0.53;0.17;;;;;;;18.24;44.38;98090.00;5074342;28;20239;-59
2020/12/27 10:22:18;;;;;;;0.10;0.10;;;;;;;18.32;44.80;98084.25;5091091;28;20183;-60
2020/12/27 10:24:44;;;;;;;0.10;0.10;;;;;;;18.41;44.76;98070.16;5074325;28;20654;-59
2020/12/27 10:27:10;;;;;;;0.27;0.27;;;;;;;18.52;45.00;98068.53;5090758;28;20193;-59
2020/12/27 10:29:36;;;;;;;0.10;0.10;;;;;;;18.61;45.03;98045.47;5074093;28;20522;-60
2020/12/27 10:32:04;;;;;;;0.13;0.10;;;;;;;18.69;45.03;98039.75;5073874;28;20179;-60
2020/12/27 10:34:30;;;;;;;0.10;0.10;;;;;;;18.79;45.02;98043.75;5090731;28;20179;-60
2020/12/27 10:36:57;;;;;;;0.30;0.10;;;;;;;18.87;45.05;98027.13;5090658;28;20713;-60
2020/12/27 10:39:23;;;;;;;0.30;0.10;;;;;;;18.94;44.88;98028.69;5057223;28;20199;-61
2020/12/27 10:41:50;;;;;;;0.30;0.10;;;;;;;19.00;45.02;98038.56;5090009;28;20202;-66
2020/12/27 10:44:16;;;;;;;0.50;0.10;;;;;;;19.10;45.26;98018.97;5073594;28;20217;-66
2020/12/27 10:46:43;;;;;;;0.10;0.10;;;;;;;19.15;45.20;98013.66;5090442;28;20186;-67
2020/12/27 10:49:09;;;;;;;1.33;0.30;;;;;;;19.24;45.00;98000.59;5084813;28;20207;-67
2020/12/27 10:51:39;;;;;;;1.03;0.30;;;;;;;19.32;45.23;97997.50;5091360;28;20277;-67
2020/12/27 10:54:06;;;;;;;1.20;0.60;;;;;;;19.39;45.58;97981.91;5092489;28;20186;-66
2020/12/27 10:56:32;;;;;;;2.23;1.00;;;;;;;19.46;45.61;97979.91;5091928;28;20214;-67
2020/12/27 10:58:58;;;;;;;2.77;1.57;;;;;;;19.54;45.74;97962.44;5091529;28;20225;-67
2020/12/27 11:01:24;;;;;;;3.33;1.60;;;;;;;19.61;45.80;97946.81;5090468;28;20182;-66
2020/12/27 11:03:50;;;;;;;4.10;1.97;;;;;;;19.70;45.98;97944.56;5090499;28;20257;-66
2020/12/27 11:06:16;;;;;;;4.10;2.50;;;;;;;19.75;46.02;97956.31;5091365;28;20190;-61
2020/12/27 11:08:42;;;;;;;5.67;2.60;;;;;;;19.80;46.00;97953.69;5090328;28;20287;-61
2020/12/27 11:11:08;;;;;;;6.53;2.77;;;;;;;19.88;46.06;97942.47;5091270;28;20607;-61
2020/12/27 11:13:35;;;;;;;5.53;2.90;;;;;;;19.92;46.23;97927.31;5071072;28;20259;-67
2020/12/27 11:16:01;;;;;;;5.53;3.03;;;;;;;19.98;46.23;97909.22;5074583;28;20211;-60
2020/12/27 11:18:27;;;;;;;6.53;3.57;;;;;;;20.03;46.36;97900.34;5090901;28;20233;-61
2020/12/27 11:20:53;;;;;;;7.10;3.40;;;;;;;20.06;46.14;97889.81;5090794;28;20183;-61
2020/12/27 11:23:19;;;;;;;7.53;3.73;;;;;;;19.89;46.12;97851.00;5091435;28;20182;-60
2020/12/27 11:25:45;;;;;;;7.10;3.63;;;;;;;20.15;46.10;97873.94;5091265;28;20340;-61
2020/12/27 11:28:11;;;;;;;8.10;3.70;;;;;;;20.19;46.06;97861.50;5090999;28;20207;-61
2020/12/27 11:30:37;;;;;;;8.83;3.80;;;;;;;20.22;46.09;97861.81;5091095;28;20235;-67
2020/12/27 11:33:03;;;;;;;9.10;4.50;;;;;;;20.27;46.11;97836.63;5091309;28;20193;-60
2020/12/27 11:35:29;;;;;;;8.70;4.20;;;;;;;20.32;46.17;97831.25;5091212;28;20244;-60
2020/12/27 11:37:55;;;;;;;11.07;4.40;;;;;;;20.36;46.07;97818.03;5069814;28;20222;-61